AFR181 WSSS-LFPG
Flight info
| Callsign | AFR181 |
|---|---|
| Flight time | N/A |
| Altitude | 28000 |
| Route | AROSO5B AROSO Y513 KALIL Y501 RINBA R325 VAS/N0516F290 A457 HTY/N0506F280 W14 PUT L759 SATVA/N0514F300 L759 BBS W50 BBN R460 LKN/N0505F320 M890 JAL R594 SSB L626 DPN G333 MERUN L750 RANAH B801 NINOP/N0492F340 A909 RODAR M11 ERLEV T923 SUBUT T916 MATAL DCT REBLO UR317 TBN UM11 CRM UL746 ODERO L746 LUGEB DCT DIRAL/N0481F360 DCT ANASA DCT ROTAR DCT SRN DCT CERVI DCT MOLUS DCT UNKIR DCT GIVRI DCT TINIL |
| Aircraft | B77W/H-SDE1E2E3FGHIJ2J3J4J5M1RWXY/LB1D1 |
Departure
| Time | 2026-05-06 14:22 |
|---|---|
| Airport | Singapore Changi Airport (WSSS) |
Arrival
| Time | N/A |
|---|---|
| Airport | Charles de Gaulle International Airport (LFPG) |
| Time | Latitude | Longitude | Altitude | Speed | Heading |
|---|---|---|---|---|---|
| 2026-05-06 14:08 | 1.36432 | 103.99055 | 37 ft | 0 kts | 294° |
| 2026-05-06 14:14 | 1.36429 | 103.99063 | 37 ft | 2 kts | 294° |
| 2026-05-06 14:14 | 1.36422 | 103.99078 | 37 ft | 2 kts | 295° |
| 2026-05-06 14:14 | 1.36414 | 103.99093 | 35 ft | 2 kts | 297° |
| 2026-05-06 14:14 | 1.36406 | 103.99107 | 33 ft | 2 kts | 303° |
| 2026-05-06 14:15 | 1.36396 | 103.99120 | 34 ft | 2 kts | 324° |
| 2026-05-06 14:15 | 1.36382 | 103.99124 | 33 ft | 1 kts | 22° |
| 2026-05-06 14:15 | 1.36379 | 103.99123 | 34 ft | 0 kts | 23° |
| 2026-05-06 14:16 | 1.36389 | 103.99127 | 34 ft | 4 kts | 23° |
| 2026-05-06 14:16 | 1.36426 | 103.99146 | 37 ft | 7 kts | 33° |
| 2026-05-06 14:17 | 1.36468 | 103.99194 | 37 ft | 10 kts | 53° |
| 2026-05-06 14:17 | 1.36508 | 103.99247 | 37 ft | 10 kts | 53° |
| 2026-05-06 14:17 | 1.36548 | 103.99299 | 37 ft | 10 kts | 53° |
| 2026-05-06 14:17 | 1.36584 | 103.99353 | 37 ft | 10 kts | 68° |
| 2026-05-06 14:18 | 1.36567 | 103.99417 | 37 ft | 11 kts | 116° |
| 2026-05-06 14:18 | 1.36535 | 103.99482 | 37 ft | 10 kts | 114° |
| 2026-05-06 14:18 | 1.36507 | 103.99549 | 37 ft | 10 kts | 113° |
| 2026-05-06 14:18 | 1.36478 | 103.99617 | 37 ft | 10 kts | 112° |
| 2026-05-06 14:19 | 1.36447 | 103.99692 | 37 ft | 13 kts | 112° |
| 2026-05-06 14:19 | 1.36415 | 103.99770 | 37 ft | 9 kts | 113° |
| 2026-05-06 14:19 | 1.36395 | 103.99815 | 37 ft | 7 kts | 118° |
| 2026-05-06 14:19 | 1.36361 | 103.99855 | 37 ft | 9 kts | 144° |
| 2026-05-06 14:20 | 1.36295 | 103.99871 | 36 ft | 11 kts | 172° |
| 2026-05-06 14:20 | 1.36221 | 103.99882 | 35 ft | 10 kts | 170° |
| 2026-05-06 14:20 | 1.36167 | 103.99884 | 35 ft | 7 kts | 189° |
| 2026-05-06 14:20 | 1.36116 | 103.99865 | 35 ft | 12 kts | 202° |
| 2026-05-06 14:21 | 1.35886 | 103.99768 | 37 ft | 68 kts | 202° |
| 2026-05-06 14:21 | 1.35237 | 103.99496 | 38 ft | 133 kts | 202° |
| 2026-05-06 14:21 | 1.34203 | 103.99059 | 40 ft | 188 kts | 203° |
| 2026-05-06 14:21 | 1.32928 | 103.98521 | 324 ft | 202 kts | 203° |
| 2026-05-06 14:22 | 1.31601 | 103.97956 | 661 ft | 212 kts | 203° |
| 2026-05-06 14:22 | 1.30220 | 103.97370 | 1075 ft | 218 kts | 202° |
| 2026-05-06 14:22 | 1.28808 | 103.96773 | 1596 ft | 222 kts | 202° |
| 2026-05-06 14:22 | 1.27381 | 103.96171 | 1948 ft | 229 kts | 202° |
| 2026-05-06 14:23 | 1.25834 | 103.95771 | 2123 ft | 234 kts | 178° |
| 2026-05-06 14:23 | 1.24297 | 103.96234 | 2430 ft | 236 kts | 145° |
| 2026-05-06 14:23 | 1.23230 | 103.97457 | 2782 ft | 237 kts | 116° |
| 2026-05-06 14:23 | 1.22622 | 103.98982 | 3176 ft | 237 kts | 111° |
| 2026-05-06 14:24 | 1.22061 | 104.00539 | 3532 ft | 240 kts | 110° |
| 2026-05-06 14:24 | 1.21622 | 104.02171 | 3724 ft | 251 kts | 89° |
| 2026-05-06 14:24 | 1.22124 | 104.03852 | 3818 ft | 263 kts | 52° |
| 2026-05-06 14:24 | 1.23584 | 104.04982 | 3935 ft | 275 kts | 16° |
| 2026-05-06 14:25 | 1.25501 | 104.05141 | 4138 ft | 282 kts | 350° |
| 2026-05-06 14:25 | 1.27425 | 104.04795 | 4459 ft | 288 kts | 348° |
| 2026-05-06 14:25 | 1.29404 | 104.04423 | 4975 ft | 290 kts | 349° |
| 2026-05-06 14:25 | 1.31384 | 104.04053 | 5501 ft | 291 kts | 349° |
| 2026-05-06 14:26 | 1.33382 | 104.03684 | 6006 ft | 293 kts | 349° |
| 2026-05-06 14:26 | 1.35402 | 104.03317 | 6442 ft | 297 kts | 349° |
| 2026-05-06 14:26 | 1.37449 | 104.02951 | 6918 ft | 300 kts | 349° |
| 2026-05-06 14:26 | 1.39508 | 104.02586 | 7412 ft | 301 kts | 349° |
| 2026-05-06 14:27 | 1.41574 | 104.02216 | 7912 ft | 302 kts | 348° |
| 2026-05-06 14:27 | 1.43617 | 104.01687 | 8381 ft | 305 kts | 342° |
| 2026-05-06 14:27 | 1.45602 | 104.01032 | 8829 ft | 307 kts | 341° |
| 2026-05-06 14:27 | 1.47627 | 104.00338 | 9288 ft | 310 kts | 341° |
| 2026-05-06 14:28 | 1.49678 | 103.99641 | 9744 ft | 312 kts | 341° |
| 2026-05-06 14:28 | 1.51748 | 103.98949 | 10126 ft | 318 kts | 342° |
| 2026-05-06 14:28 | 1.53903 | 103.98237 | 10214 ft | 334 kts | 342° |
| 2026-05-06 14:28 | 1.56159 | 103.97499 | 10344 ft | 349 kts | 342° |
| 2026-05-06 14:29 | 1.58521 | 103.96730 | 10459 ft | 364 kts | 342° |
| 2026-05-06 14:29 | 1.60978 | 103.95933 | 10640 ft | 377 kts | 342° |
| 2026-05-06 14:29 | 1.63505 | 103.95115 | 10961 ft | 386 kts | 342° |
| 2026-05-06 14:29 | 1.66074 | 103.94283 | 11397 ft | 391 kts | 342° |
| 2026-05-06 14:30 | 1.68632 | 103.93455 | 11921 ft | 393 kts | 343° |
| 2026-05-06 14:30 | 1.71238 | 103.92611 | 12492 ft | 395 kts | 343° |
| 2026-05-06 14:30 | 1.73813 | 103.91642 | 12942 ft | 399 kts | 333° |
| 2026-05-06 14:30 | 1.76148 | 103.90120 | 13378 ft | 405 kts | 321° |
| 2026-05-06 14:31 | 1.78135 | 103.88119 | 13850 ft | 406 kts | 309° |
| 2026-05-06 14:31 | 1.79849 | 103.85870 | 14225 ft | 411 kts | 307° |
| 2026-05-06 14:31 | 1.81558 | 103.83585 | 14660 ft | 414 kts | 307° |
| 2026-05-06 14:31 | 1.83300 | 103.81276 | 15107 ft | 417 kts | 308° |
| 2026-05-06 14:32 | 1.85061 | 103.78969 | 15568 ft | 419 kts | 308° |
| 2026-05-06 14:32 | 1.86845 | 103.76652 | 16018 ft | 422 kts | 308° |
| 2026-05-06 14:32 | 1.88622 | 103.74352 | 16428 ft | 425 kts | 308° |
| 2026-05-06 14:32 | 1.90436 | 103.72007 | 16838 ft | 428 kts | 308° |
| 2026-05-06 14:33 | 1.92258 | 103.69644 | 17238 ft | 431 kts | 308° |